Achim Manz-Bothe 1:30:00 row

21,485

Meters

1:30:00.0

Time

2:05.6

Pace

1342

Calories

118

Heart Rate

Average Watts176
Calories Per Hour894
Stroke Rate27

August 20, 2019 12:54:00

Workout
RowErg

Workout Type
Fixed Time

Weight Class
Hwt

Verified
Yes

Entered
Concept2 Utility

Splits

Time Meters Pace Watts Cal/Hr Cal S/M
1:30:00.0 21,485 2:05.6 176 894 1342 27 118
3:00.0 692 2:10.0 159 840 42 27 100
6:00.0 699 2:08.7 164 860 43 28 105
9:00.0 704 2:07.8 168 860 43 28 109
12:00.0 713 2:06.2 174 880 44 28 115
15:00.0 721 2:04.8 180 900 45 28 118
18:00.0 718 2:05.3 178 900 45 28 114
21:00.0 718 2:05.3 178 900 45 29 115
24:00.0 719 2:05.1 178 900 45 29 115
27:00.0 721 2:04.8 180 900 45 28 117
30:00.0 722 2:04.6 181 920 46 28 115
33:00.0 719 2:05.1 178 900 45 28 115
36:00.0 717 2:05.5 177 900 45 28 117
39:00.0 719 2:05.1 178 900 45 28 117
42:00.0 720 2:05.0 179 900 45 28 119
45:00.0 720 2:05.0 179 900 45 28 118
48:00.0 720 2:05.0 179 900 45 28 119
51:00.0 719 2:05.1 178 900 45 28 120
54:00.0 718 2:05.3 178 900 45 28 119
57:00.0 717 2:05.5 177 900 45 28 119
1:00:00.0 718 2:05.3 178 900 45 28 120
1:03:00.0 719 2:05.1 178 900 45 28 121
1:06:00.0 718 2:05.3 178 900 45 28 122
1:09:00.0 716 2:05.6 176 900 45 28 124
1:12:00.0 720 2:05.0 179 900 45 28 122
1:15:00.0 718 2:05.3 178 900 45 28 122
1:18:00.0 719 2:05.1 178 900 45 28 122
1:21:00.0 715 2:05.8 175 900 45 28 126
1:24:00.0 715 2:05.8 175 900 45 28 124
1:27:00.0 719 2:05.1 178 900 45 28 126
1:30:00.0 712 2:06.4 173 880 44 27 126